createdAt,value
2023-04-02T00:00:17.602Z,99126.34
2023-04-02T00:03:08.705Z,99114.97
2023-04-02T00:05:55.144Z,99126.22
2023-04-02T00:08:31.220Z,99133.13
2023-04-02T00:11:03.468Z,99133.94
2023-04-02T00:13:37.234Z,99133.91
2023-04-02T00:16:14.307Z,99154.72
2023-04-02T00:18:49.570Z,99145.13
2023-04-02T00:21:24.630Z,99145.97
2023-04-02T00:23:57.053Z,99159.81
2023-04-02T00:26:32.660Z,99160.66
2023-04-02T00:29:03.937Z,99163.28
2023-04-02T00:31:37.597Z,99168.47
2023-04-02T00:34:11.712Z,99170.25
2023-04-02T00:36:42.166Z,99175.47
2023-04-02T00:39:21.379Z,99178.03
2023-04-02T00:41:54.857Z,99171.88
2023-04-02T00:44:24.626Z,99181.38
2023-04-02T00:46:58.553Z,99184.81
2023-04-02T00:49:35.542Z,99187.44
2023-04-02T00:52:07.491Z,99188.16
2023-04-02T00:54:42.924Z,99196.81
2023-04-02T00:57:20.371Z,99200.22
2023-04-02T01:00:00.988Z,99201.91
2023-04-02T01:02:35.953Z,99195.81
2023-04-02T01:05:27.753Z,99202.63
2023-04-02T01:08:07.564Z,99193.84
2023-04-02T01:10:47.662Z,99208.56
2023-04-02T01:13:27.700Z,99212.06
2023-04-02T01:16:04.504Z,99218.09
2023-04-02T01:18:50.443Z,99225.00
2023-04-02T01:21:38.212Z,99231.13
2023-04-02T01:24:10.205Z,99228.50
2023-04-02T01:26:49.042Z,99224.19
2023-04-02T01:29:23.192Z,99229.31
2023-04-02T01:31:55.146Z,99235.28
2023-04-02T01:34:28.397Z,99239.56
2023-04-02T01:37:13.161Z,99244.78
2023-04-02T01:39:57.020Z,99241.19
2023-04-02T01:42:29.157Z,99246.34
2023-04-02T01:45:11.190Z,99252.41
2023-04-02T01:47:42.077Z,99256.81
2023-04-02T01:50:34.893Z,99261.94
2023-04-02T01:53:07.324Z,99261.06
2023-04-02T01:55:43.839Z,99258.41
2023-04-02T01:58:16.195Z,99280.16
2023-04-02T02:00:53.131Z,99279.22
2023-04-02T02:03:23.309Z,99282.69
2023-04-02T02:05:53.676Z,99281.72
2023-04-02T02:08:42.077Z,99273.91
2023-04-02T02:11:17.276Z,99279.13
2023-04-02T02:13:49.897Z,99284.31
2023-04-02T02:16:22.456Z,99289.47
2023-04-02T02:18:55.775Z,99289.50
2023-04-02T02:21:39.790Z,99300.69
2023-04-02T02:24:17.580Z,99307.66
2023-04-02T02:26:50.036Z,99316.28
2023-04-02T02:29:22.860Z,99311.94
2023-04-02T02:31:57.964Z,99316.28
2023-04-02T02:34:34.837Z,99321.47
2023-04-02T02:37:09.474Z,99325.75
2023-04-02T02:39:43.597Z,99331.75
2023-04-02T02:42:18.943Z,99329.16
2023-04-02T02:44:52.185Z,99336.09
2023-04-02T02:47:28.475Z,99336.13
2023-04-02T02:50:00.718Z,99354.09
2023-04-02T02:52:33.441Z,99339.34
2023-04-02T02:55:05.652Z,99356.53
2023-04-02T02:57:39.026Z,99356.41
2023-04-02T03:00:13.239Z,99360.75
2023-04-02T03:02:50.851Z,99372.72
2023-04-02T03:05:23.846Z,99369.91
2023-04-02T03:07:55.678Z,99378.41
2023-04-02T03:10:32.708Z,99381.72
2023-04-02T03:13:08.712Z,99392.88
2023-04-02T03:15:45.371Z,99397.19
2023-04-02T03:18:27.310Z,99390.81
2023-04-02T03:21:03.748Z,99407.22
2023-04-02T03:23:38.071Z,99402.88
2023-04-02T03:26:11.446Z,99412.41
2023-04-02T03:28:44.598Z,99411.44
2023-04-02T03:31:21.468Z,99417.22
2023-04-02T03:33:58.350Z,99424.16
2023-04-02T03:36:31.363Z,99430.28
2023-04-02T03:39:07.613Z,99423.25
2023-04-02T03:41:45.169Z,99427.53
2023-04-02T03:44:24.330Z,99438.88
2023-04-02T03:46:59.070Z,99443.13
2023-04-02T03:49:38.470Z,99448.44
2023-04-02T03:52:13.486Z,99450.06
2023-04-02T03:54:53.889Z,99460.41
2023-04-02T03:57:30.149Z,99461.16
2023-04-02T04:00:05.814Z,99462.84
2023-04-02T04:02:45.145Z,99469.84
2023-04-02T04:05:29.062Z,99474.19
2023-04-02T04:08:03.579Z,99475.97
2023-04-02T04:10:34.514Z,99481.16
2023-04-02T04:13:08.220Z,99483.78
2023-04-02T04:15:41.760Z,99485.47
2023-04-02T04:18:21.758Z,99495.72
2023-04-02T04:20:57.275Z,99494.03
2023-04-02T04:23:32.861Z,99493.25
2023-04-02T04:26:09.798Z,99498.41
2023-04-02T04:28:45.448Z,99507.00
2023-04-02T04:31:25.972Z,99514.91
2023-04-02T04:34:05.900Z,99519.22
2023-04-02T04:36:54.351Z,99515.81
2023-04-02T04:39:29.876Z,99534.09
2023-04-02T04:42:03.280Z,99538.47
2023-04-02T04:44:42.276Z,99539.53
2023-04-02T04:47:16.219Z,99544.06
2023-04-02T04:49:50.511Z,99557.19
2023-04-02T04:52:26.713Z,99553.13
2023-04-02T04:54:56.148Z,99556.66
2023-04-02T04:57:33.530Z,99568.88
2023-04-02T05:02:51.686Z,99577.53
2023-04-02T05:05:24.630Z,99588.78
2023-04-02T05:08:02.055Z,99594.00
2023-04-02T05:10:40.185Z,99592.22
2023-04-02T05:13:18.538Z,99587.06
2023-04-02T05:15:55.840Z,99599.09
2023-04-02T05:18:32.827Z,99605.19
2023-04-02T05:21:09.087Z,99609.56
2023-04-02T05:23:48.778Z,99612.94
2023-04-02T05:26:22.069Z,99613.75
2023-04-02T05:29:00.720Z,99620.66
2023-04-02T05:31:38.582Z,99633.59
2023-04-02T05:34:08.390Z,99625.81
2023-04-02T05:36:38.153Z,99634.53
2023-04-02T05:39:12.696Z,99640.50
2023-04-02T05:41:46.157Z,99636.19
2023-04-02T05:44:22.968Z,99649.25
2023-04-02T05:46:57.602Z,99658.75
2023-04-02T05:49:31.473Z,99649.31
2023-04-02T05:52:05.105Z,99665.78
2023-04-02T05:54:42.706Z,99664.91
2023-04-02T05:57:16.584Z,99664.84
2023-04-02T05:59:51.316Z,99664.88
2023-04-02T06:02:25.641Z,99673.53
2023-04-02T06:04:59.419Z,99685.66
2023-04-02T06:07:35.100Z,99678.69
2023-04-02T06:10:13.250Z,99675.16
2023-04-02T06:12:47.216Z,99685.50
2023-04-02T06:15:18.347Z,99695.09
2023-04-02T06:17:51.021Z,99683.88
2023-04-02T06:20:23.305Z,99696.97
2023-04-02T06:22:57.709Z,99700.41
2023-04-02T06:25:34.205Z,99695.22
2023-04-02T06:28:08.747Z,99714.44
2023-04-02T06:30:42.291Z,99712.69
2023-04-02T06:33:15.747Z,99723.13
2023-04-02T06:35:46.950Z,99716.25
2023-04-02T06:38:21.733Z,99729.34
2023-04-02T06:40:58.902Z,99728.56
2023-04-02T06:43:33.739Z,99728.50
2023-04-02T06:46:09.397Z,99738.06
2023-04-02T06:48:40.334Z,99739.72
2023-04-02T06:51:13.457Z,99754.44
2023-04-02T06:53:46.312Z,99763.09
2023-04-02T06:56:28.627Z,99785.56
2023-04-02T06:58:58.277Z,99762.16
2023-04-02T07:01:32.019Z,99776.91
2023-04-02T07:04:02.372Z,99771.72
2023-04-02T07:06:32.146Z,99778.72
2023-04-02T07:09:01.705Z,99782.16
2023-04-02T07:11:34.092Z,99786.50
2023-04-02T07:14:03.710Z,99780.56
2023-04-02T07:16:36.924Z,99803.03
2023-04-02T07:19:08.171Z,99796.19
2023-04-02T07:21:37.765Z,99793.69
2023-04-02T07:24:08.206Z,99806.81
2023-04-02T07:26:40.839Z,99801.66
2023-04-02T07:29:11.520Z,99818.06
2023-04-02T07:31:42.320Z,99800.56
2023-04-02T07:34:12.746Z,99810.16
2023-04-02T07:36:42.411Z,99823.09
2023-04-02T07:39:12.380Z,99823.09
2023-04-02T07:41:57.191Z,99826.34
2023-04-02T07:44:26.864Z,99831.69
2023-04-02T07:46:57.298Z,99836.72
2023-04-02T07:49:27.286Z,99840.19
2023-04-02T07:51:56.930Z,99834.09
2023-04-02T07:54:27.331Z,99842.84
2023-04-02T07:56:59.711Z,99843.09
2023-04-02T07:59:29.269Z,99845.28
2023-04-02T08:01:58.927Z,99845.53
2023-04-02T08:04:28.462Z,99850.78
2023-04-02T08:06:57.974Z,99858.59
2023-04-02T08:09:27.509Z,99874.56
2023-04-02T08:11:59.612Z,99875.19
2023-04-02T08:14:29.168Z,99887.34
2023-04-02T08:16:59.088Z,99888.78
2023-04-02T08:19:28.722Z,99892.31
2023-04-02T08:22:00.162Z,99898.56
2023-04-02T08:24:29.662Z,99890.97
2023-04-02T08:27:02.486Z,99905.03
2023-04-02T08:29:32.496Z,99912.97
2023-04-02T08:32:02.293Z,99918.53
2023-04-02T08:34:31.850Z,99920.31
2023-04-02T08:37:02.034Z,99911.75
2023-04-02T08:39:33.360Z,99919.59
2023-04-02T08:42:10.082Z,99913.78
2023-04-02T08:44:46.731Z,99933.09
2023-04-02T08:47:20.584Z,99928.81
2023-04-02T08:49:57.894Z,99934.84
2023-04-02T08:52:29.706Z,99936.75
2023-04-02T08:55:00.607Z,99923.38
2023-04-02T08:57:39.798Z,99929.53
2023-04-02T09:00:20.520Z,99928.00
2023-04-02T09:02:55.359Z,99923.69
2023-04-02T09:05:30.809Z,99934.22
2023-04-02T09:08:05.199Z,99928.38
2023-04-02T09:10:41.868Z,99938.75
2023-04-02T09:13:24.211Z,99942.88
2023-04-02T09:15:59.104Z,99952.38
2023-04-02T09:18:32.817Z,99954.94
2023-04-02T09:21:10.101Z,99950.94
2023-04-02T09:23:39.629Z,99950.28
2023-04-02T09:26:24.090Z,99972.50
2023-04-02T09:29:29.422Z,99977.31
2023-04-02T09:32:09.443Z,99979.09
2023-04-02T09:34:39.772Z,99970.00
2023-04-02T09:37:11.338Z,99987.63
2023-04-02T09:39:41.279Z,99983.53
2023-04-02T09:42:30.742Z,99978.44
2023-04-02T09:45:16.775Z,99983.78
2023-04-02T09:47:46.570Z,100001.94
2023-04-02T09:50:18.454Z,100010.00
2023-04-02T09:52:48.087Z,100010.00
2023-04-02T09:55:25.614Z,100020.34
2023-04-02T09:58:10.352Z,100017.75
2023-04-02T10:00:44.086Z,100013.34
2023-04-02T10:03:27.471Z,100020.91
2023-04-02T10:06:13.625Z,100035.66
2023-04-02T10:08:45.170Z,100031.41
2023-04-02T10:11:17.729Z,100022.34
2023-04-02T10:13:55.571Z,100032.94
2023-04-02T10:16:35.161Z,100044.69
2023-04-02T10:19:16.859Z,100045.69
2023-04-02T10:21:49.263Z,100055.34
2023-04-02T10:24:20.136Z,100057.59
2023-04-02T10:27:02.140Z,100055.38
2023-04-02T10:29:50.616Z,100058.16
2023-04-02T10:32:26.517Z,100063.09
2023-04-02T10:35:01.925Z,100064.78
2023-04-02T10:37:54.854Z,100071.72
2023-04-02T10:40:33.646Z,100058.16
2023-04-02T10:43:28.968Z,100067.50
2023-04-02T10:46:05.311Z,100068.09
2023-04-02T10:48:44.628Z,100064.50
2023-04-02T10:51:34.652Z,100076.56
2023-04-02T10:54:16.746Z,100066.22
2023-04-02T10:56:51.091Z,100089.50
2023-04-02T10:59:24.576Z,100079.28
2023-04-02T11:01:58.207Z,100085.50
2023-04-02T11:04:43.712Z,100094.38
2023-04-02T11:07:20.185Z,100097.50
2023-04-02T11:09:54.909Z,100095.00
2023-04-02T11:12:29.479Z,100107.06
2023-04-02T11:14:59.424Z,100120.78
2023-04-02T11:17:29.218Z,100105.78
2023-04-02T11:20:36.478Z,100120.56
2023-04-02T11:23:13.286Z,100117.97
2023-04-02T11:25:44.542Z,100121.44
2023-04-02T11:28:30.986Z,100134.88
2023-04-02T11:31:01.086Z,100130.56
2023-04-02T11:33:47.327Z,100136.91
2023-04-02T11:36:48.531Z,100133.00
2023-04-02T11:39:57.378Z,100137.09
2023-04-02T11:42:32.861Z,100136.16
2023-04-02T11:45:24.587Z,100133.75
2023-04-02T11:48:24.060Z,100141.13
2023-04-02T11:50:53.831Z,100142.78
2023-04-02T11:53:25.900Z,100154.13
2023-04-02T11:56:21.969Z,100151.78
2023-04-02T11:59:06.882Z,100165.69
2023-04-02T12:01:57.197Z,100170.59
2023-04-02T12:04:47.251Z,100176.31
2023-04-02T12:07:39.124Z,100170.72
2023-04-02T12:10:19.940Z,100178.44
2023-04-02T12:12:53.168Z,100192.16
2023-04-02T12:15:36.677Z,100175.75
2023-04-02T12:18:13.039Z,100183.66
2023-04-02T12:20:45.199Z,100190.81
2023-04-02T12:23:23.990Z,100190.75
2023-04-02T12:25:59.690Z,100184.03
2023-04-02T12:28:34.061Z,100197.88
2023-04-02T12:31:15.113Z,100198.63
2023-04-02T12:33:45.960Z,100186.75
2023-04-02T12:36:22.785Z,100194.31
2023-04-02T12:38:54.313Z,100191.84
2023-04-02T12:41:27.510Z,100196.44
2023-04-02T12:44:04.700Z,100199.13
2023-04-02T12:46:37.020Z,100203.84
2023-04-02T12:49:10.288Z,100196.81
2023-04-02T12:51:40.724Z,100199.38
2023-04-02T12:54:17.642Z,100204.91
2023-04-02T12:56:47.562Z,100209.16
2023-04-02T12:59:36.146Z,100216.13
2023-04-02T13:02:18.972Z,100217.31
2023-04-02T13:04:52.856Z,100211.06
2023-04-02T13:07:25.400Z,100221.47
2023-04-02T13:09:56.326Z,100225.94
2023-04-02T13:12:33.959Z,100224.91
2023-04-02T13:15:09.908Z,100232.31
2023-04-02T13:17:44.808Z,100229.16
2023-04-02T13:20:34.268Z,100232.75
2023-04-02T13:23:25.169Z,100228.34
2023-04-02T13:25:55.008Z,100231.22
2023-04-02T13:28:24.802Z,100233.06
2023-04-02T13:30:57.090Z,100238.22
2023-04-02T13:33:26.767Z,100232.03
2023-04-02T13:35:56.486Z,100238.28
2023-04-02T13:38:26.415Z,100239.50
2023-04-02T13:40:56.089Z,100246.38
2023-04-02T13:43:25.645Z,100242.19
2023-04-02T13:46:01.175Z,100250.78
2023-04-02T13:48:31.359Z,100254.56
2023-04-02T13:51:00.992Z,100253.00
2023-04-02T13:53:33.754Z,100253.19
2023-04-02T13:56:03.436Z,100268.81
2023-04-02T13:58:32.963Z,100270.59
2023-04-02T14:01:05.572Z,100270.53
2023-04-02T14:03:35.310Z,100265.72
2023-04-02T14:06:10.344Z,100269.19
2023-04-02T14:08:56.008Z,100274.34
2023-04-02T14:11:38.785Z,100282.72
2023-04-02T14:14:40.892Z,100286.31
2023-04-02T14:17:26.373Z,100267.00
2023-04-02T14:20:12.707Z,100281.56
2023-04-02T14:22:58.872Z,100291.28
2023-04-02T14:25:36.262Z,100290.38
2023-04-02T14:28:14.385Z,100288.53
2023-04-02T14:30:52.827Z,100297.19
2023-04-02T14:33:38.437Z,100300.56
2023-04-02T14:36:17.093Z,100299.63
2023-04-02T14:38:57.737Z,100304.03
2023-04-02T14:41:34.089Z,100304.03
2023-04-02T14:44:07.160Z,100304.84
2023-04-02T14:46:39.704Z,100313.44
2023-04-02T14:49:27.462Z,100308.41
2023-04-02T14:52:03.900Z,100313.56
2023-04-02T14:54:37.600Z,100323.19
2023-04-02T14:57:12.689Z,100317.94
2023-04-02T14:59:47.181Z,100330.97
2023-04-02T15:02:21.792Z,100330.41
2023-04-02T15:05:01.591Z,100330.41
2023-04-02T15:07:39.008Z,100330.25
2023-04-02T15:10:17.638Z,100339.84
2023-04-02T15:12:49.424Z,100334.63
2023-04-02T15:15:36.997Z,100336.28
2023-04-02T15:18:13.764Z,100337.19
2023-04-02T15:20:53.494Z,100341.53
2023-04-02T15:23:36.687Z,100344.16
2023-04-02T15:26:15.223Z,100351.19
2023-04-02T15:28:50.084Z,100345.88
2023-04-02T15:31:22.926Z,100349.31
2023-04-02T15:33:56.891Z,100356.34
2023-04-02T15:36:48.420Z,100358.00
2023-04-02T15:39:38.356Z,100360.72
2023-04-02T15:42:23.046Z,100363.22
2023-04-02T15:45:21.558Z,100364.13
2023-04-02T15:48:10.644Z,100367.59
2023-04-02T15:50:51.038Z,100366.66
2023-04-02T15:53:34.273Z,100369.31
2023-04-02T15:56:17.436Z,100367.50
2023-04-02T15:59:00.771Z,100382.25
2023-04-02T16:01:38.218Z,100385.75
2023-04-02T16:04:31.904Z,100389.25
2023-04-02T16:07:20.461Z,100394.44
2023-04-02T16:10:02.197Z,100401.41
2023-04-02T16:12:33.524Z,100391.81
2023-04-02T16:15:14.122Z,100390.84
2023-04-02T16:17:53.738Z,100396.06
2023-04-02T16:20:29.047Z,100415.25
2023-04-02T16:23:03.683Z,100421.28
2023-04-02T16:25:44.590Z,100409.91
2023-04-02T16:28:22.589Z,100401.28
2023-04-02T16:31:00.706Z,100413.22
2023-04-02T16:33:47.290Z,100436.44
2023-04-02T16:36:28.301Z,100434.53
2023-04-02T16:39:04.198Z,100437.88
2023-04-02T16:41:54.348Z,100444.69
2023-04-02T16:44:35.060Z,100443.81
2023-04-02T16:47:17.346Z,100442.94
2023-04-02T16:49:53.432Z,100449.00
2023-04-02T16:52:37.711Z,100461.16
2023-04-02T16:55:24.188Z,100454.97
2023-04-02T16:58:04.538Z,100468.75
2023-04-02T17:00:42.191Z,100462.69
2023-04-02T17:03:38.175Z,100471.25
2023-04-02T17:06:09.745Z,100464.25
2023-04-02T17:08:45.588Z,100482.50
2023-04-02T17:11:24.133Z,100470.31
2023-04-02T17:14:06.767Z,100481.56
2023-04-02T17:16:44.422Z,100487.59
2023-04-02T17:19:15.890Z,100489.34
2023-04-02T17:21:48.969Z,100497.94
2023-04-02T17:24:26.068Z,100498.81
2023-04-02T17:27:00.939Z,100496.13
2023-04-02T17:29:38.110Z,100501.28
2023-04-02T17:32:15.156Z,100497.78
2023-04-02T17:34:44.714Z,100512.59
2023-04-02T17:37:27.830Z,100514.31
2023-04-02T17:40:10.630Z,100516.94
2023-04-02T17:42:51.188Z,100512.63
2023-04-02T17:45:31.933Z,100517.13
2023-04-02T17:48:12.926Z,100517.91
2023-04-02T17:51:01.026Z,100525.72
2023-04-02T17:53:40.760Z,100532.69
2023-04-02T17:56:32.129Z,100529.31
2023-04-02T17:59:24.257Z,100530.16
2023-04-02T18:02:03.225Z,100538.91
2023-04-02T18:04:42.764Z,100541.47
2023-04-02T18:07:30.196Z,100551.91
2023-04-02T18:10:06.467Z,100549.28
2023-04-02T18:12:48.544Z,100559.72
2023-04-02T18:15:43.488Z,100565.84
2023-04-02T18:18:26.721Z,100569.25
2023-04-02T18:21:08.108Z,100573.66
2023-04-02T18:23:50.152Z,100574.50
2023-04-02T18:26:32.522Z,100583.34
2023-04-02T18:29:10.603Z,100587.59
2023-04-02T18:31:50.266Z,100601.53
2023-04-02T18:34:52.666Z,100593.75
2023-04-02T18:37:31.465Z,100602.41
2023-04-02T18:40:22.257Z,100611.00
2023-04-02T18:43:02.914Z,100604.88
2023-04-02T18:45:41.269Z,100608.44
2023-04-02T18:48:28.618Z,100618.88
2023-04-02T18:51:02.040Z,100627.53
2023-04-02T18:53:34.439Z,100615.31
2023-04-02T18:56:06.848Z,100622.38
2023-04-02T18:58:42.478Z,100616.28
2023-04-02T19:01:18.235Z,100631.78
2023-04-02T19:03:52.474Z,100631.69
2023-04-02T19:06:38.664Z,100634.28
2023-04-02T19:09:15.288Z,100630.94
2023-04-02T19:11:44.912Z,100635.09
2023-04-02T19:14:16.368Z,100635.97
2023-04-02T19:17:05.089Z,100639.44
2023-04-02T19:19:41.142Z,100645.50
2023-04-02T19:22:32.587Z,100642.84
2023-04-02T19:25:20.819Z,100650.72
2023-04-02T19:28:04.474Z,100650.72
2023-04-02T19:30:46.052Z,100657.63
2023-04-02T19:33:32.433Z,100653.22
2023-04-02T19:36:06.848Z,100667.19
2023-04-02T19:38:58.273Z,100660.22
2023-04-02T19:41:34.394Z,100671.44
2023-04-02T19:44:04.036Z,100672.34
2023-04-02T19:46:33.675Z,100672.41
2023-04-02T19:49:08.756Z,100674.28
2023-04-02T19:51:38.305Z,100674.22
2023-04-02T19:54:10.611Z,100677.69
2023-04-02T19:56:42.544Z,100666.28
2023-04-02T19:59:17.935Z,100661.97
2023-04-02T20:01:48.529Z,100668.84
2023-04-02T20:04:18.170Z,100679.94
2023-04-02T20:06:47.836Z,100696.47
2023-04-02T20:09:21.302Z,100687.72
2023-04-02T20:11:51.096Z,100688.47
2023-04-02T20:14:20.870Z,100682.28
2023-04-02T20:16:50.836Z,100704.84
2023-04-02T20:19:20.889Z,100705.69
2023-04-02T20:21:50.496Z,100691.69
2023-04-02T20:24:22.736Z,100695.03
2023-04-02T20:26:52.307Z,100689.81
2023-04-02T20:29:23.349Z,100713.13
2023-04-02T20:31:52.954Z,100711.28
2023-04-02T20:34:22.649Z,100713.78
2023-04-02T20:36:53.814Z,100709.28
2023-04-02T20:39:26.544Z,100703.13
2023-04-02T20:42:02.444Z,100722.97
2023-04-02T20:44:32.193Z,100727.16
2023-04-02T20:47:02.060Z,100714.84
2023-04-02T20:49:31.656Z,100723.31
2023-04-02T20:52:01.378Z,100723.13
2023-04-02T20:54:33.574Z,100736.69
2023-04-02T20:57:03.166Z,100729.63
2023-04-02T20:59:32.768Z,100735.47
2023-04-02T21:02:02.510Z,100742.31
2023-04-02T21:04:32.103Z,100743.06
2023-04-02T21:07:01.671Z,100739.50
2023-04-02T21:09:33.789Z,100743.78
2023-04-02T21:12:03.344Z,100754.00
2023-04-02T21:14:37.711Z,100744.41
2023-04-02T21:17:07.593Z,100752.16
2023-04-02T21:19:37.322Z,100750.00
2023-04-02T21:22:06.871Z,100754.97
2023-04-02T21:24:39.036Z,100753.00
2023-04-02T21:27:08.572Z,100745.78
2023-04-02T21:29:38.130Z,100762.88
2023-04-02T21:32:20.278Z,100774.81
2023-04-02T21:34:50.635Z,100754.63
2023-04-02T21:37:20.251Z,100763.19
2023-04-02T21:39:52.426Z,100770.78
2023-04-02T21:42:22.506Z,100759.47
2023-04-02T21:44:52.061Z,100769.66
2023-04-02T21:47:21.676Z,100780.88
2023-04-02T21:49:51.278Z,100785.03
2023-04-02T21:52:20.856Z,100777.09
2023-04-02T21:54:52.978Z,100787.50
2023-04-02T21:57:22.642Z,100780.31
2023-04-02T21:59:54.472Z,100785.41
2023-04-02T22:02:23.979Z,100785.22
2023-04-02T22:04:53.783Z,100792.03
2023-04-02T22:07:23.414Z,100795.31
2023-04-02T22:09:55.504Z,100800.38
2023-04-02T22:12:25.107Z,100800.38
2023-04-02T22:14:54.662Z,100796.84
2023-04-02T22:17:24.277Z,100795.78
2023-04-02T22:19:53.820Z,100800.81
2023-04-02T22:22:23.341Z,100796.41
2023-04-02T22:24:56.383Z,100804.09
2023-04-02T22:27:25.954Z,100796.97
2023-04-02T22:29:55.494Z,100812.47
2023-04-02T22:32:25.055Z,100801.13
2023-04-02T22:34:54.616Z,100813.84
2023-04-02T22:37:24.341Z,100804.09
2023-04-02T22:39:56.469Z,100796.88
2023-04-02T22:42:26.844Z,100804.28
2023-04-02T22:44:56.396Z,100806.75
2023-04-02T22:47:26.025Z,100812.47
2023-04-02T22:49:55.576Z,100806.09
2023-04-02T22:52:25.135Z,100801.56
2023-04-02T22:54:57.400Z,100807.22
2023-04-02T22:57:26.974Z,100807.81
2023-04-02T22:59:56.539Z,100809.31
2023-04-02T23:02:27.232Z,100801.28
2023-04-02T23:04:56.819Z,100812.25
2023-04-02T23:07:27.446Z,100814.56
2023-04-02T23:09:59.599Z,100803.06
2023-04-02T23:12:29.227Z,100813.28
2023-04-02T23:14:59.190Z,100822.38
2023-04-02T23:17:28.776Z,100821.34
2023-04-02T23:19:58.339Z,100830.59
2023-04-02T23:22:27.878Z,100824.34
2023-04-02T23:25:02.650Z,100837.91
2023-04-02T23:27:32.184Z,100830.88
2023-04-02T23:30:01.741Z,100839.31
2023-04-02T23:32:31.348Z,100846.84
2023-04-02T23:35:00.895Z,100838.69
2023-04-02T23:37:30.450Z,100843.59
2023-04-02T23:40:02.820Z,100839.91
2023-04-02T23:42:32.378Z,100845.56
2023-04-02T23:45:01.909Z,100852.84
2023-04-02T23:47:31.455Z,100839.16
2023-04-02T23:50:00.961Z,100853.41
2023-04-02T23:52:30.490Z,100848.56
2023-04-02T23:55:02.604Z,100854.22
2023-04-02T23:57:32.292Z,100844.41
